createdAt,value
2022-09-21T00:01:11.096Z,7.29
2022-09-21T00:02:13.472Z,7.29
2022-09-21T00:03:16.003Z,7.30
2022-09-21T00:04:17.653Z,7.30
2022-09-21T00:05:19.285Z,7.30
2022-09-21T00:06:23.214Z,7.30
2022-09-21T00:07:24.934Z,7.31
2022-09-21T00:08:26.824Z,7.31
2022-09-21T00:09:28.433Z,7.31
2022-09-21T00:10:30.288Z,7.31
2022-09-21T00:11:33.941Z,7.31
2022-09-21T00:12:38.532Z,7.31
2022-09-21T00:13:40.638Z,7.31
2022-09-21T00:14:43.259Z,7.30
2022-09-21T00:15:44.841Z,7.31
2022-09-21T00:16:46.511Z,7.31
2022-09-21T00:17:48.249Z,7.32
2022-09-21T00:18:50.279Z,7.33
2022-09-21T00:19:52.437Z,7.34
2022-09-21T00:20:54.126Z,7.35
2022-09-21T00:21:56.583Z,7.37
2022-09-21T00:22:58.385Z,7.38
2022-09-21T00:24:00.662Z,7.39
2022-09-21T00:25:03.499Z,7.41
2022-09-21T00:26:06.226Z,7.42
2022-09-21T00:27:07.850Z,7.43
2022-09-21T00:28:09.636Z,7.43
2022-09-21T00:29:11.286Z,7.45
2022-09-21T00:30:13.026Z,7.44
2022-09-21T00:31:18.837Z,7.45
2022-09-21T00:32:20.487Z,7.45
2022-09-21T00:33:22.069Z,7.45
2022-09-21T00:34:24.777Z,7.45
2022-09-21T00:35:26.405Z,7.44
2022-09-21T00:36:28.653Z,7.45
2022-09-21T00:37:30.933Z,7.45
2022-09-21T00:38:33.560Z,7.45
2022-09-21T00:39:35.414Z,7.45
2022-09-21T00:40:37.045Z,7.45
2022-09-21T00:41:38.684Z,7.44
2022-09-21T00:42:40.401Z,7.45
2022-09-21T00:44:07.770Z,7.45
2022-09-21T00:45:21.387Z,7.43
2022-09-21T00:46:30.897Z,7.43
2022-09-21T00:47:43.092Z,7.42
2022-09-21T00:48:46.917Z,7.43
2022-09-21T00:49:54.400Z,7.41
2022-09-21T00:51:03.877Z,7.40
2022-09-21T00:52:08.400Z,7.40
2022-09-21T00:53:10.449Z,7.40
2022-09-21T00:54:23.245Z,7.38
2022-09-21T00:55:34.409Z,7.37
2022-09-21T00:56:37.364Z,7.37
2022-09-21T00:57:39.615Z,7.36
2022-09-21T00:58:47.934Z,7.34
2022-09-21T00:59:54.528Z,7.34
2022-09-21T01:00:59.965Z,7.34
2022-09-21T01:02:01.635Z,7.32
2022-09-21T01:03:05.378Z,7.31
2022-09-21T01:04:08.741Z,7.30
2022-09-21T01:05:10.736Z,7.30
2022-09-21T01:06:19.979Z,7.29
2022-09-21T01:07:29.348Z,7.29
2022-09-21T01:08:31.493Z,7.29
2022-09-21T01:09:34.728Z,7.28
2022-09-21T01:11:16.421Z,7.29
2022-09-21T01:12:41.242Z,7.29
2022-09-21T01:14:19.915Z,7.29
2022-09-21T01:15:37.849Z,7.28
2022-09-21T01:16:53.228Z,7.28
2022-09-21T01:18:05.954Z,7.29
2022-09-21T01:19:34.736Z,7.29
2022-09-21T01:21:01.185Z,7.29
2022-09-21T01:22:44.014Z,7.28
2022-09-21T01:24:11.529Z,7.28
2022-09-21T01:25:34.699Z,7.28
2022-09-21T01:26:48.490Z,7.29
2022-09-21T01:28:07.849Z,7.29
2022-09-21T01:29:28.000Z,7.29
2022-09-21T01:30:34.149Z,7.30
2022-09-21T01:31:54.143Z,7.32
2022-09-21T01:33:26.353Z,7.33
2022-09-21T01:34:48.901Z,7.36
2022-09-21T01:35:58.027Z,7.39
2022-09-21T01:37:11.787Z,7.41
2022-09-21T01:38:50.029Z,7.43
2022-09-21T01:39:59.726Z,7.43
2022-09-21T01:41:08.330Z,7.42
2022-09-21T01:42:13.502Z,7.43
2022-09-21T01:43:25.332Z,7.44
2022-09-21T01:44:34.554Z,7.45
2022-09-21T01:45:43.337Z,7.47
2022-09-21T01:46:47.535Z,7.47
2022-09-21T01:47:51.288Z,7.50
2022-09-21T01:49:06.814Z,7.52
2022-09-21T01:50:12.196Z,7.53
2022-09-21T01:51:19.679Z,7.54
2022-09-21T01:52:33.124Z,7.55
2022-09-21T01:53:41.986Z,7.57
2022-09-21T01:54:52.582Z,7.59
2022-09-21T01:56:05.116Z,7.60
2022-09-21T01:57:15.346Z,7.62
2022-09-21T01:58:33.093Z,7.65
2022-09-21T01:59:49.175Z,7.68
2022-09-21T02:00:56.572Z,7.71
2022-09-21T02:02:12.838Z,7.72
2022-09-21T02:03:28.330Z,7.74
2022-09-21T02:04:30.788Z,7.75
2022-09-21T02:05:33.855Z,7.76
2022-09-21T02:06:41.308Z,7.78
2022-09-21T02:07:43.748Z,7.79
2022-09-21T02:08:46.661Z,7.81
2022-09-21T02:09:48.709Z,7.82
2022-09-21T02:10:53.132Z,7.84
2022-09-21T02:11:54.835Z,7.85
2022-09-21T02:13:01.614Z,7.88
2022-09-21T02:14:03.294Z,7.91
2022-09-21T02:15:05.781Z,7.93
2022-09-21T02:16:07.372Z,7.94
2022-09-21T02:17:23.646Z,7.96
2022-09-21T02:18:47.002Z,7.98
2022-09-21T02:20:10.953Z,7.99
2022-09-21T02:21:48.368Z,8.00
2022-09-21T02:23:26.492Z,8.01
2022-09-21T02:24:48.009Z,8.03
2022-09-21T02:25:57.565Z,8.03
2022-09-21T02:27:10.847Z,8.04
2022-09-21T02:29:01.373Z,8.03
2022-09-21T02:30:22.145Z,8.05
2022-09-21T02:31:53.558Z,8.06
2022-09-21T02:33:36.793Z,8.09
2022-09-21T02:34:46.795Z,8.11
2022-09-21T02:36:16.716Z,8.13
2022-09-21T02:37:47.233Z,8.12
2022-09-21T02:39:05.152Z,8.14
2022-09-21T02:40:22.928Z,8.15
2022-09-21T02:41:37.894Z,8.16
2022-09-21T02:42:46.355Z,8.15
2022-09-21T02:43:52.675Z,8.17
2022-09-21T02:45:08.189Z,8.17
2022-09-21T02:46:30.958Z,8.17
2022-09-21T02:47:42.805Z,8.17
2022-09-21T02:48:51.462Z,8.18
2022-09-21T02:50:03.359Z,8.17
2022-09-21T02:51:16.651Z,8.17
2022-09-21T02:52:21.833Z,8.16
2022-09-21T02:53:29.528Z,8.15
2022-09-21T02:54:34.163Z,8.14
2022-09-21T02:55:36.643Z,8.12
2022-09-21T02:56:41.450Z,8.11
2022-09-21T02:57:47.485Z,8.11
2022-09-21T02:58:55.006Z,8.11
2022-09-21T02:59:56.966Z,8.11
2022-09-21T03:01:00.161Z,8.13
2022-09-21T03:02:02.122Z,8.13
2022-09-21T03:03:22.082Z,8.14
2022-09-21T03:04:24.963Z,8.14
2022-09-21T03:05:28.553Z,8.14
2022-09-21T03:06:31.388Z,8.15
2022-09-21T03:07:33.048Z,8.17
2022-09-21T03:08:34.709Z,8.19
2022-09-21T03:09:36.357Z,8.19
2022-09-21T03:10:39.722Z,8.20
2022-09-21T03:11:43.157Z,8.21
2022-09-21T03:12:46.039Z,8.21
2022-09-21T03:13:47.634Z,8.22
2022-09-21T03:14:51.260Z,8.23
2022-09-21T03:16:01.069Z,8.24
2022-09-21T03:17:03.037Z,8.26
2022-09-21T03:18:06.706Z,8.29
2022-09-21T03:19:09.013Z,8.30
2022-09-21T03:20:10.726Z,8.33
2022-09-21T03:21:13.317Z,8.35
2022-09-21T03:22:14.947Z,8.36
2022-09-21T03:23:16.577Z,8.37
2022-09-21T03:24:38.193Z,8.38
2022-09-21T03:25:43.613Z,8.38
2022-09-21T03:26:45.256Z,8.39
2022-09-21T03:27:46.890Z,8.39
2022-09-21T03:28:54.814Z,8.41
2022-09-21T03:30:01.299Z,8.43
2022-09-21T03:31:03.971Z,8.44
2022-09-21T03:32:06.154Z,8.44
2022-09-21T03:33:08.335Z,8.44
2022-09-21T03:34:11.372Z,8.44
2022-09-21T03:35:13.042Z,8.45
2022-09-21T03:36:14.889Z,8.45
2022-09-21T03:37:17.082Z,8.45
2022-09-21T03:38:21.546Z,8.44
2022-09-21T03:39:23.198Z,8.44
2022-09-21T03:40:26.560Z,8.43
2022-09-21T03:41:28.479Z,8.40
2022-09-21T03:42:30.102Z,8.37
2022-09-21T03:43:32.403Z,8.35
2022-09-21T03:44:34.226Z,8.34
2022-09-21T03:45:35.828Z,8.33
2022-09-21T03:46:37.528Z,8.31
2022-09-21T03:47:40.434Z,8.30
2022-09-21T03:48:42.483Z,8.29
2022-09-21T03:49:44.137Z,8.28
2022-09-21T03:50:45.794Z,8.29
2022-09-21T03:51:47.757Z,8.30
2022-09-21T03:52:49.465Z,8.31
2022-09-21T03:53:51.474Z,8.31
2022-09-21T03:54:53.120Z,8.32
2022-09-21T03:55:54.732Z,8.32
2022-09-21T03:56:56.418Z,8.32
2022-09-21T03:57:58.098Z,8.31
2022-09-21T03:58:59.788Z,8.31
2022-09-21T04:00:04.021Z,8.31
2022-09-21T04:01:06.007Z,8.31
2022-09-21T04:02:08.435Z,8.31
2022-09-21T04:03:10.117Z,8.31
2022-09-21T04:04:11.796Z,8.30
2022-09-21T04:05:15.707Z,8.30
2022-09-21T04:06:18.145Z,8.30
2022-09-21T04:07:19.886Z,8.31
2022-09-21T04:08:21.527Z,8.31
2022-09-21T04:09:23.468Z,8.34
2022-09-21T04:10:29.290Z,8.33
2022-09-21T04:11:32.461Z,8.33
2022-09-21T04:12:34.918Z,8.31
2022-09-21T04:13:36.592Z,8.31
2022-09-21T04:14:38.364Z,8.31
2022-09-21T04:15:40.105Z,8.31
2022-09-21T04:16:41.828Z,8.32
2022-09-21T04:17:43.590Z,8.32
2022-09-21T04:18:45.261Z,8.31
2022-09-21T04:19:47.815Z,8.33
2022-09-21T04:20:49.401Z,8.34
2022-09-21T04:21:55.949Z,8.35
2022-09-21T04:22:57.908Z,8.35
2022-09-21T04:24:00.235Z,8.36
2022-09-21T04:25:02.774Z,8.36
2022-09-21T04:26:04.557Z,8.36
2022-09-21T04:27:06.890Z,8.35
2022-09-21T04:28:08.871Z,8.34
2022-09-21T04:29:11.971Z,8.33
2022-09-21T04:30:15.929Z,8.31
2022-09-21T04:31:17.779Z,8.29
2022-09-21T04:32:19.410Z,8.30
2022-09-21T04:33:22.186Z,8.29
2022-09-21T04:34:23.943Z,8.28
2022-09-21T04:35:25.541Z,8.29
2022-09-21T04:36:33.152Z,8.29
2022-09-21T04:37:37.565Z,8.31
2022-09-21T04:38:40.519Z,8.34
2022-09-21T04:39:42.170Z,8.34
2022-09-21T04:40:43.781Z,8.36
2022-09-21T04:41:45.910Z,8.37
2022-09-21T04:42:53.829Z,8.38
2022-09-21T04:43:55.506Z,8.38
2022-09-21T04:44:57.118Z,8.39
2022-09-21T04:45:58.854Z,8.40
2022-09-21T04:47:00.618Z,8.42
2022-09-21T04:48:02.469Z,8.42
2022-09-21T04:49:04.633Z,8.42
2022-09-21T04:50:06.979Z,8.42
2022-09-21T04:51:10.367Z,8.42
2022-09-21T04:52:14.739Z,8.42
2022-09-21T04:53:20.005Z,8.42
2022-09-21T04:54:21.622Z,8.43
2022-09-21T04:55:23.225Z,8.44
2022-09-21T04:56:24.839Z,8.45
2022-09-21T04:57:26.503Z,8.45
2022-09-21T04:58:28.237Z,8.44
2022-09-21T04:59:29.933Z,8.44
2022-09-21T05:00:32.009Z,8.44
2022-09-21T05:01:33.892Z,8.44
2022-09-21T05:02:35.527Z,8.44
2022-09-21T05:03:38.343Z,8.45
2022-09-21T05:04:40.042Z,8.45
2022-09-21T05:05:50.585Z,8.47
2022-09-21T05:06:52.184Z,8.48
2022-09-21T05:07:54.239Z,8.51
2022-09-21T05:09:15.219Z,8.54
2022-09-21T05:10:16.917Z,8.57
2022-09-21T05:11:19.636Z,8.57
2022-09-21T05:12:21.258Z,8.58
2022-09-21T05:13:22.880Z,8.59
2022-09-21T05:14:24.516Z,8.61
2022-09-21T05:15:26.157Z,8.61
2022-09-21T05:16:27.801Z,8.62
2022-09-21T05:17:29.742Z,8.62
2022-09-21T05:18:31.546Z,8.61
2022-09-21T05:19:33.200Z,8.58
2022-09-21T05:20:35.018Z,8.59
2022-09-21T05:21:37.145Z,8.58
2022-09-21T05:22:38.833Z,8.57
2022-09-21T05:23:40.745Z,8.56
2022-09-21T05:24:42.441Z,8.56
2022-09-21T05:25:44.051Z,8.56
2022-09-21T05:26:45.823Z,8.55
2022-09-21T05:27:47.582Z,8.54
2022-09-21T05:28:49.834Z,8.54
2022-09-21T05:29:51.905Z,8.53
2022-09-21T05:31:18.772Z,8.54
2022-09-21T05:32:45.351Z,8.55
2022-09-21T05:33:52.677Z,8.56
2022-09-21T05:35:02.249Z,8.58
2022-09-21T05:36:34.507Z,8.60
2022-09-21T05:38:12.679Z,8.64
2022-09-21T05:39:14.595Z,8.65
2022-09-21T05:40:16.606Z,8.66
2022-09-21T05:41:18.512Z,8.68
2022-09-21T05:42:20.307Z,8.71
2022-09-21T05:43:22.319Z,8.73
2022-09-21T05:44:24.340Z,8.73
2022-09-21T05:45:28.749Z,8.73
2022-09-21T05:46:51.676Z,8.72
2022-09-21T05:48:00.141Z,8.74
2022-09-21T05:49:22.786Z,8.77
2022-09-21T05:51:03.096Z,8.80
2022-09-21T05:52:25.593Z,8.86
2022-09-21T05:53:30.093Z,8.90
2022-09-21T05:54:48.794Z,8.92
2022-09-21T05:55:56.686Z,8.95
2022-09-21T05:57:27.416Z,8.98
2022-09-21T05:58:55.354Z,9.01
2022-09-21T06:00:12.295Z,9.04
2022-09-21T06:02:05.218Z,9.06
2022-09-21T06:03:32.330Z,9.08
2022-09-21T06:04:34.395Z,9.11
2022-09-21T06:05:36.243Z,9.13
2022-09-21T06:06:38.899Z,9.15
2022-09-21T06:07:41.605Z,9.14
2022-09-21T06:08:43.201Z,9.17
2022-09-21T06:09:45.170Z,9.16
2022-09-21T06:10:46.845Z,9.16
2022-09-21T06:11:48.690Z,9.17
2022-09-21T06:12:50.346Z,9.18
2022-09-21T06:13:51.982Z,9.20
2022-09-21T06:14:53.920Z,9.21
2022-09-21T06:15:55.561Z,9.22
2022-09-21T06:16:57.198Z,9.22
2022-09-21T06:17:59.406Z,9.24
2022-09-21T06:19:00.997Z,9.28
2022-09-21T06:20:03.482Z,9.32
2022-09-21T06:21:05.459Z,9.34
2022-09-21T06:22:07.121Z,9.35
2022-09-21T06:23:11.723Z,9.36
2022-09-21T06:24:13.319Z,9.37
2022-09-21T06:25:15.201Z,9.37
2022-09-21T06:26:17.674Z,9.36
2022-09-21T06:27:19.450Z,9.35
2022-09-21T06:28:21.190Z,9.35
2022-09-21T06:29:23.713Z,9.34
2022-09-21T06:30:25.482Z,9.33
2022-09-21T06:31:28.007Z,9.32
2022-09-21T06:32:29.794Z,9.29
2022-09-21T06:33:31.406Z,9.26
2022-09-21T06:34:33.014Z,9.27
2022-09-21T06:35:36.599Z,9.26
2022-09-21T06:36:38.207Z,9.25
2022-09-21T06:37:42.054Z,9.26
2022-09-21T06:38:43.838Z,9.28
2022-09-21T06:39:45.634Z,9.30
2022-09-21T06:40:47.301Z,9.32
2022-09-21T06:41:48.933Z,9.36
2022-09-21T06:42:56.120Z,9.38
2022-09-21T06:43:57.756Z,9.40
2022-09-21T06:44:59.445Z,9.41
2022-09-21T06:46:03.114Z,9.41
2022-09-21T06:47:05.016Z,9.42
2022-09-21T06:48:06.837Z,9.45
2022-09-21T06:49:08.434Z,9.50
2022-09-21T06:50:10.045Z,9.54
2022-09-21T06:51:11.638Z,9.58
2022-09-21T06:52:13.254Z,9.63
2022-09-21T06:53:16.338Z,9.67
2022-09-21T06:54:18.385Z,9.71
2022-09-21T06:55:20.235Z,9.73
2022-09-21T06:56:22.094Z,9.75
2022-09-21T06:57:24.022Z,9.76
2022-09-21T06:58:25.644Z,9.76
2022-09-21T06:59:27.262Z,9.76
2022-09-21T07:00:29.795Z,9.75
2022-09-21T07:01:31.468Z,9.74
2022-09-21T07:02:33.465Z,9.72
2022-09-21T07:03:35.993Z,9.71
2022-09-21T07:04:37.598Z,9.71
2022-09-21T07:05:40.028Z,9.71
2022-09-21T07:06:41.657Z,9.71
2022-09-21T07:07:43.286Z,9.72
2022-09-21T07:10:14.592Z,9.71
2022-09-21T07:11:19.725Z,9.71
2022-09-21T07:12:21.960Z,9.72
2022-09-21T07:13:23.764Z,9.72
2022-09-21T07:14:25.486Z,9.72
2022-09-21T07:15:29.024Z,9.74
2022-09-21T07:16:31.053Z,9.75
2022-09-21T07:17:35.085Z,9.77
2022-09-21T07:18:43.629Z,9.79
2022-09-21T07:19:46.034Z,9.81
2022-09-21T07:20:51.778Z,9.85
2022-09-21T07:21:54.345Z,9.88
2022-09-21T07:22:55.999Z,9.89
2022-09-21T07:24:01.195Z,9.89
2022-09-21T07:25:06.735Z,9.89
2022-09-21T07:26:11.804Z,9.90
2022-09-21T07:27:13.433Z,9.92
2022-09-21T07:28:15.254Z,9.93
2022-09-21T07:29:16.855Z,9.93
2022-09-21T07:30:18.593Z,9.95
2022-09-21T07:31:20.241Z,9.97
2022-09-21T07:32:21.939Z,9.97
2022-09-21T07:33:24.520Z,9.96
2022-09-21T07:34:26.390Z,9.95
2022-09-21T07:35:28.018Z,9.95
2022-09-21T07:36:29.746Z,9.96
2022-09-21T07:37:31.802Z,9.98
2022-09-21T07:38:35.554Z,10.00
2022-09-21T07:39:39.110Z,10.04
2022-09-21T07:40:40.872Z,10.07
2022-09-21T07:41:42.506Z,10.11
2022-09-21T07:42:44.828Z,10.15
2022-09-21T07:43:47.170Z,10.22
2022-09-21T07:44:49.263Z,10.31
2022-09-21T07:45:58.008Z,10.38
2022-09-21T07:47:01.261Z,10.48
2022-09-21T07:48:04.740Z,10.61
2022-09-21T07:49:06.531Z,10.71
2022-09-21T07:50:08.887Z,10.84
2022-09-21T07:51:14.190Z,10.93
2022-09-21T07:52:15.906Z,11.05
2022-09-21T07:53:17.636Z,11.14
2022-09-21T07:54:19.233Z,11.20
2022-09-21T07:55:21.086Z,11.24
2022-09-21T07:56:23.545Z,11.25
2022-09-21T07:57:43.447Z,11.26
2022-09-21T07:59:03.397Z,11.26
2022-09-21T08:00:05.690Z,11.26
2022-09-21T08:01:13.481Z,11.23
2022-09-21T08:02:15.238Z,11.21
2022-09-21T08:03:17.015Z,11.20
2022-09-21T08:04:18.822Z,11.19
2022-09-21T08:05:20.480Z,11.19
2022-09-21T08:06:24.638Z,11.15
2022-09-21T08:07:28.370Z,11.11
2022-09-21T08:08:30.397Z,11.08
2022-09-21T08:09:32.018Z,11.05
2022-09-21T08:10:35.386Z,11.03
2022-09-21T08:11:37.699Z,11.03
2022-09-21T08:12:40.068Z,11.04
2022-09-21T08:13:41.775Z,11.07
2022-09-21T08:14:43.548Z,11.07
2022-09-21T08:15:49.800Z,11.04
2022-09-21T08:16:51.964Z,11.03
2022-09-21T08:17:54.574Z,11.03
2022-09-21T08:18:56.637Z,11.01
2022-09-21T08:19:58.618Z,11.03
2022-09-21T08:21:00.974Z,11.04
2022-09-21T08:22:02.777Z,11.08
2022-09-21T08:24:58.311Z,11.18
2022-09-21T08:26:13.528Z,11.18
2022-09-21T08:27:25.219Z,11.19
2022-09-21T08:28:59.789Z,11.23
2022-09-21T08:30:27.732Z,11.27
2022-09-21T08:31:40.103Z,11.32
2022-09-21T08:32:51.717Z,11.38
2022-09-21T08:33:57.793Z,11.43
2022-09-21T08:34:59.675Z,11.51
2022-09-21T08:36:02.216Z,11.59
2022-09-21T08:37:03.996Z,11.62
2022-09-21T08:38:06.046Z,11.63
2022-09-21T08:39:09.193Z,11.63
2022-09-21T08:40:12.439Z,11.67
2022-09-21T08:41:20.297Z,11.73
2022-09-21T08:42:37.289Z,11.79
2022-09-21T08:43:45.663Z,11.83
2022-09-21T08:45:00.472Z,11.83
2022-09-21T08:46:13.210Z,11.80
2022-09-21T08:47:28.718Z,11.81
2022-09-21T08:48:37.946Z,11.83
2022-09-21T08:49:46.306Z,11.88
2022-09-21T08:50:54.774Z,11.96
2022-09-21T08:52:14.463Z,12.02
2022-09-21T08:53:34.470Z,12.09
2022-09-21T08:54:46.683Z,12.15
2022-09-21T08:55:48.415Z,12.20
2022-09-21T08:57:04.612Z,12.25
2022-09-21T08:58:28.518Z,12.32
2022-09-21T08:59:30.219Z,12.38
2022-09-21T09:00:39.945Z,12.43
2022-09-21T09:02:04.015Z,12.44
2022-09-21T09:03:24.256Z,12.42
2022-09-21T09:04:49.274Z,12.43
2022-09-21T09:06:07.624Z,12.39
2022-09-21T09:07:44.224Z,12.38
2022-09-21T09:09:01.862Z,12.40
2022-09-21T09:10:29.640Z,12.45
2022-09-21T09:11:54.568Z,12.48
2022-09-21T09:13:28.287Z,12.45
2022-09-21T09:14:53.758Z,12.41
2022-09-21T09:16:08.112Z,12.39
2022-09-21T09:17:35.740Z,12.39
2022-09-21T09:18:52.849Z,12.45
2022-09-21T09:20:05.536Z,12.53
2022-09-21T09:21:26.659Z,12.59
2022-09-21T09:22:44.793Z,12.65
2022-09-21T09:23:54.232Z,12.68
2022-09-21T09:25:03.038Z,12.68
2022-09-21T09:26:26.062Z,12.67
2022-09-21T09:27:34.914Z,12.66
2022-09-21T09:28:52.722Z,12.65
2022-09-21T09:30:04.055Z,12.62
2022-09-21T09:31:28.219Z,12.56
2022-09-21T09:32:48.683Z,12.50
2022-09-21T09:34:25.621Z,12.59
2022-09-21T09:35:45.642Z,12.80
2022-09-21T09:36:59.233Z,13.06
2022-09-21T09:38:21.506Z,13.27
2022-09-21T09:39:24.627Z,13.50
2022-09-21T09:41:08.932Z,13.66
2022-09-21T09:42:25.770Z,13.89
2022-09-21T09:43:43.315Z,13.91
2022-09-21T09:45:37.641Z,13.99
2022-09-21T09:47:16.651Z,13.91
2022-09-21T09:48:51.882Z,13.75
2022-09-21T09:50:04.675Z,13.48
2022-09-21T09:51:12.746Z,13.30
2022-09-21T09:52:16.714Z,13.15
2022-09-21T09:53:23.927Z,13.03
2022-09-21T09:54:28.254Z,12.93
2022-09-21T09:55:38.196Z,12.85
2022-09-21T09:56:39.877Z,12.76
2022-09-21T09:57:42.023Z,12.71
2022-09-21T09:59:09.061Z,12.67
2022-09-21T10:00:15.230Z,12.62
2022-09-21T10:01:36.624Z,12.61
2022-09-21T10:02:47.407Z,12.60
2022-09-21T10:04:09.002Z,12.61
2022-09-21T10:05:28.898Z,12.62
2022-09-21T10:06:32.951Z,12.66
2022-09-21T10:07:40.270Z,12.66
2022-09-21T10:08:48.502Z,12.64
2022-09-21T10:09:50.096Z,12.63
2022-09-21T10:10:51.773Z,12.62
2022-09-21T10:11:59.026Z,12.61
2022-09-21T10:13:16.033Z,12.60
2022-09-21T10:14:27.078Z,12.58
2022-09-21T10:15:29.701Z,12.59
2022-09-21T10:16:31.608Z,12.57
2022-09-21T10:17:33.395Z,12.57
2022-09-21T10:18:50.035Z,12.57
2022-09-21T10:20:08.108Z,12.54
2022-09-21T10:21:19.401Z,12.50
2022-09-21T10:22:22.639Z,12.48
2022-09-21T10:23:25.471Z,12.46
2022-09-21T10:24:33.448Z,12.49
2022-09-21T10:25:39.494Z,12.51
2022-09-21T10:26:49.829Z,12.53
2022-09-21T10:27:53.142Z,12.55
2022-09-21T10:28:57.324Z,12.60
2022-09-21T10:29:58.983Z,12.68
2022-09-21T10:31:21.448Z,12.90
2022-09-21T10:32:28.311Z,13.28
2022-09-21T10:33:30.626Z,13.56
2022-09-21T10:34:35.235Z,13.78
2022-09-21T10:35:50.410Z,13.93
2022-09-21T10:36:56.036Z,14.06
2022-09-21T10:38:22.010Z,14.11
2022-09-21T10:39:32.247Z,14.14
2022-09-21T10:40:38.612Z,14.14
2022-09-21T10:41:40.340Z,14.12
2022-09-21T10:42:43.698Z,14.09
2022-09-21T10:43:45.864Z,14.07
2022-09-21T10:44:52.014Z,14.03
2022-09-21T10:45:57.080Z,13.97
2022-09-21T10:47:16.918Z,13.93
2022-09-21T10:48:23.186Z,13.95
2022-09-21T10:49:28.900Z,13.95
2022-09-21T10:50:44.749Z,13.95
2022-09-21T10:51:50.578Z,14.02
2022-09-21T10:52:59.591Z,14.03
2022-09-21T10:54:01.619Z,14.00
2022-09-21T10:55:03.519Z,14.00
2022-09-21T10:56:17.393Z,13.97
2022-09-21T10:57:23.517Z,13.92
2022-09-21T10:58:25.904Z,13.90
2022-09-21T10:59:32.374Z,13.89
2022-09-21T11:00:44.985Z,13.82
2022-09-21T11:01:49.885Z,13.74
2022-09-21T11:02:52.215Z,13.71
2022-09-21T11:04:03.058Z,13.79
2022-09-21T11:05:04.714Z,13.94
2022-09-21T11:06:16.991Z,14.02
2022-09-21T11:07:26.132Z,14.12
2022-09-21T11:08:36.867Z,14.19
2022-09-21T11:09:57.566Z,14.49
2022-09-21T11:11:13.919Z,14.65
2022-09-21T11:12:25.326Z,14.86
2022-09-21T11:14:01.128Z,15.06
2022-09-21T11:15:30.744Z,15.23
2022-09-21T11:16:40.394Z,15.10
2022-09-21T11:17:59.330Z,14.86
2022-09-21T11:19:42.334Z,14.65
2022-09-21T11:20:43.854Z,14.63
2022-09-21T11:21:57.584Z,14.67
2022-09-21T11:23:36.318Z,14.88
2022-09-21T11:25:04.278Z,15.44
2022-09-21T11:28:07.138Z,15.52
2022-09-21T11:29:12.162Z,15.48
2022-09-21T11:30:17.294Z,15.36
2022-09-21T11:31:31.906Z,15.20
2022-09-21T11:32:51.750Z,15.01
2022-09-21T11:34:05.402Z,14.78
2022-09-21T11:35:26.906Z,14.57
2022-09-21T11:36:46.682Z,14.43
2022-09-21T11:38:04.841Z,14.31
2022-09-21T11:39:26.434Z,14.19
2022-09-21T11:40:46.476Z,14.10
2022-09-21T11:42:11.107Z,14.06
2022-09-21T11:43:25.694Z,14.07
2022-09-21T11:44:43.070Z,14.12
2022-09-21T11:46:01.366Z,14.48
2022-09-21T11:47:35.221Z,15.06
2022-09-21T11:49:15.261Z,15.87
2022-09-21T11:50:30.545Z,16.52
2022-09-21T11:51:59.357Z,16.69
2022-09-21T11:53:38.551Z,16.47
2022-09-21T11:54:58.776Z,16.39
2022-09-21T11:56:15.377Z,16.53
2022-09-21T11:57:33.851Z,16.59
2022-09-21T11:59:04.156Z,16.87
2022-09-21T12:00:16.199Z,17.25
2022-09-21T12:01:51.155Z,17.55
2022-09-21T12:02:52.873Z,17.67
2022-09-21T12:04:32.225Z,17.56
2022-09-21T12:05:36.706Z,17.31
2022-09-21T12:06:50.378Z,17.19
2022-09-21T12:08:37.396Z,17.22
2022-09-21T12:10:11.152Z,16.98
2022-09-21T12:11:50.359Z,16.81
2022-09-21T12:13:00.670Z,16.78
2022-09-21T12:14:17.427Z,16.89
2022-09-21T12:15:38.319Z,16.81
2022-09-21T12:17:09.441Z,16.55
2022-09-21T12:18:40.378Z,16.36
2022-09-21T12:20:03.737Z,16.03
2022-09-21T12:21:14.536Z,15.70
2022-09-21T12:22:30.647Z,15.37
2022-09-21T12:23:43.890Z,15.09
2022-09-21T12:25:02.653Z,14.87
2022-09-21T12:26:07.331Z,14.69
2022-09-21T12:27:28.177Z,14.67
2022-09-21T12:28:39.397Z,14.79
2022-09-21T12:29:50.124Z,14.78
2022-09-21T12:31:01.594Z,14.83
2022-09-21T12:32:29.104Z,14.67
2022-09-21T12:33:51.329Z,14.45
2022-09-21T12:35:02.750Z,14.26
2022-09-21T12:36:20.377Z,14.09
2022-09-21T12:37:31.598Z,13.85
2022-09-21T12:38:40.900Z,13.60
2022-09-21T12:40:15.215Z,13.33
2022-09-21T12:41:47.380Z,12.97
2022-09-21T12:43:01.805Z,12.68
2022-09-21T12:44:28.741Z,12.52
2022-09-21T12:45:38.447Z,12.37
2022-09-21T12:47:16.391Z,12.27
2022-09-21T12:48:26.570Z,12.14
2022-09-21T12:49:32.338Z,12.08
2022-09-21T12:50:45.561Z,12.01
2022-09-21T12:51:56.773Z,11.90
2022-09-21T12:52:59.617Z,11.82
2022-09-21T12:54:14.378Z,11.76
2022-09-21T12:55:25.783Z,11.71
2022-09-21T12:57:29.826Z,11.69
2022-09-21T12:58:57.708Z,11.70
2022-09-21T13:00:09.706Z,11.70
2022-09-21T13:01:32.429Z,11.72
2022-09-21T13:02:48.258Z,11.74
2022-09-21T13:04:12.661Z,11.76
2022-09-21T13:05:26.448Z,12.15
2022-09-21T13:06:57.349Z,12.73
2022-09-21T13:08:30.506Z,13.37
2022-09-21T13:09:32.754Z,13.84
2022-09-21T13:10:43.043Z,14.15
2022-09-21T13:11:59.826Z,14.25
2022-09-21T13:13:04.347Z,14.32
2022-09-21T13:14:06.224Z,14.29
2022-09-21T13:15:27.266Z,14.22
2022-09-21T13:16:36.569Z,14.13
2022-09-21T13:17:38.362Z,14.33
2022-09-21T13:18:41.760Z,14.63
2022-09-21T13:19:43.504Z,14.81
2022-09-21T13:20:46.236Z,15.07
2022-09-21T13:22:19.808Z,15.43
2022-09-21T13:23:33.965Z,15.87
2022-09-21T13:24:35.954Z,16.15
2022-09-21T13:25:38.341Z,16.41
2022-09-21T13:26:44.497Z,16.72
2022-09-21T13:28:04.478Z,17.03
2022-09-21T13:29:28.572Z,17.27
2022-09-21T13:30:33.025Z,17.57
2022-09-21T13:32:00.653Z,17.70
2022-09-21T13:33:05.193Z,17.83
2022-09-21T13:34:28.497Z,17.87
2022-09-21T13:35:48.776Z,17.89
2022-09-21T13:37:19.481Z,18.06
2022-09-21T13:38:54.583Z,18.30
2022-09-21T13:40:02.149Z,18.39
2022-09-21T13:42:49.877Z,18.98
2022-09-21T13:44:01.078Z,19.15
2022-09-21T13:45:14.796Z,19.38
2022-09-21T13:46:34.719Z,19.43
2022-09-21T13:47:41.854Z,19.39
2022-09-21T13:48:43.582Z,19.39
2022-09-21T13:49:52.622Z,19.38
2022-09-21T13:50:59.561Z,19.43
2022-09-21T13:52:26.644Z,19.52
2022-09-21T13:53:40.158Z,19.52
2022-09-21T13:54:44.482Z,19.54
2022-09-21T13:55:53.939Z,19.55
2022-09-21T13:57:09.172Z,19.54
2022-09-21T13:58:35.893Z,19.49
2022-09-21T13:59:40.682Z,19.33
2022-09-21T14:01:03.045Z,19.37
2022-09-21T14:02:32.656Z,19.45
2022-09-21T14:03:43.018Z,19.43
2022-09-21T14:04:50.703Z,19.62
2022-09-21T14:06:00.366Z,19.65
2022-09-21T14:07:07.708Z,19.82
2022-09-21T14:08:15.632Z,20.00
2022-09-21T14:09:25.984Z,19.90
2022-09-21T14:10:32.273Z,19.44
2022-09-21T14:11:36.538Z,18.94
2022-09-21T14:12:44.570Z,18.71
2022-09-21T14:14:03.319Z,18.68
2022-09-21T14:15:34.603Z,18.76
2022-09-21T14:16:53.586Z,18.79
2022-09-21T14:18:37.599Z,18.59
2022-09-21T14:19:39.126Z,18.21
2022-09-21T14:20:42.344Z,18.06
2022-09-21T14:22:07.434Z,17.80
2022-09-21T14:23:15.062Z,17.39
2022-09-21T14:24:34.048Z,17.22
2022-09-21T14:25:56.427Z,17.07
2022-09-21T14:27:19.102Z,17.03
2022-09-21T14:28:32.038Z,16.96
2022-09-21T14:29:56.370Z,16.82
2022-09-21T14:31:04.919Z,16.58
2022-09-21T14:32:16.528Z,16.36
2022-09-21T14:33:29.125Z,16.09
2022-09-21T14:34:36.934Z,15.86
2022-09-21T14:35:45.584Z,15.72
2022-09-21T14:36:52.737Z,15.62
2022-09-21T14:38:26.293Z,15.52
2022-09-21T14:39:39.454Z,15.33
2022-09-21T14:40:51.766Z,15.19
2022-09-21T14:41:59.498Z,15.05
2022-09-21T14:43:09.586Z,14.90
2022-09-21T14:44:21.388Z,14.67
2022-09-21T14:45:41.409Z,14.38
2022-09-21T14:47:12.729Z,13.99
2022-09-21T14:48:55.956Z,13.61
2022-09-21T14:50:21.387Z,13.32
2022-09-21T14:52:04.251Z,13.19
2022-09-21T14:53:39.133Z,13.08
2022-09-21T14:55:16.732Z,12.96
2022-09-21T14:56:44.062Z,12.81
2022-09-21T14:58:01.067Z,12.66
2022-09-21T14:59:26.163Z,12.51
2022-09-21T15:00:43.801Z,12.32
2022-09-21T15:02:03.456Z,12.17
2022-09-21T15:03:32.958Z,12.00
2022-09-21T15:05:07.131Z,11.83
2022-09-21T15:06:36.058Z,11.69
2022-09-21T15:08:05.829Z,11.56
2022-09-21T15:09:50.910Z,11.38
2022-09-21T15:11:27.076Z,11.17
2022-09-21T15:12:55.517Z,11.00
2022-09-21T15:14:20.790Z,10.89
2022-09-21T15:16:17.730Z,10.79
2022-09-21T15:17:31.303Z,10.70
2022-09-21T15:18:36.034Z,10.67
2022-09-21T15:19:37.686Z,10.62
2022-09-21T15:20:39.374Z,10.58
2022-09-21T15:21:46.484Z,10.55
2022-09-21T15:22:48.225Z,10.56
2022-09-21T15:23:51.556Z,10.60
2022-09-21T15:25:04.094Z,10.64
2022-09-21T15:26:29.816Z,10.67
2022-09-21T15:27:33.452Z,10.71
2022-09-21T15:29:08.411Z,10.75